Time;durP1;ratioP1;P1;durP2;ratioP2;P2;SDS_P1;SDS_P2;PMS_P1;PMS_P2;Temp;Humidity;BMP_temperature;BMP_pressure;BME280_temperature;BME280_humidity;BME280_pressure;Samples;Min_cycle;Max_cycle;Signal;HPM_P1;HPM_P2
2021/12/22 00:00:06;;;;;;;32.38;12.48;;;;;;;1.54;59.01;102578.66;5016077;28;123580;-67
2021/12/22 00:02:35;;;;;;;32.88;12.48;;;;;;;1.54;59.02;102578.66;5012895;28;114969;-67
2021/12/22 00:05:03;;;;;;;30.10;11.90;;;;;;;1.52;58.74;102575.13;5000499;28;113280;-67
2021/12/22 00:07:30;;;;;;;31.13;12.18;;;;;;;1.51;58.89;102578.59;5005434;28;123537;-67
2021/12/22 00:09:57;;;;;;;29.77;12.45;;;;;;;1.49;58.88;102577.69;5005459;28;122852;-67
2021/12/22 00:12:24;;;;;;;26.25;11.40;;;;;;;1.50;59.45;102579.44;5018921;28;114128;-67
2021/12/22 00:14:52;;;;;;;30.35;11.77;;;;;;;1.48;59.02;102576.78;5012558;28;113876;-67
2021/12/22 00:17:19;;;;;;;33.42;12.00;;;;;;;1.47;58.68;102585.50;5011655;28;124377;-66
2021/12/22 00:19:46;;;;;;;24.88;11.25;;;;;;;1.47;58.73;102582.88;5020259;28;124694;-66
2021/12/22 00:22:13;;;;;;;28.67;11.55;;;;;;;1.47;58.78;102576.75;5017070;28;114486;-66
2021/12/22 00:24:40;;;;;;;33.65;12.50;;;;;;;1.46;58.87;102585.44;5024908;28;114997;-66
2021/12/22 00:27:09;;;;;;;28.85;12.27;;;;;;;1.43;58.90;102582.75;5019584;28;123393;-67
2021/12/22 00:29:36;;;;;;;34.10;12.15;;;;;;;1.42;58.65;102588.84;5023096;28;124710;-67
2021/12/22 00:32:11;;;;;;;33.42;12.27;;;;;;;1.41;58.95;102587.06;5021284;28;114639;-67
2021/12/22 00:34:46;;;;;;;;;;;;;;;1.37;58.95;102591.34;5015968;28;113585;-67
2021/12/22 00:37:16;;;;;;;33.80;12.10;;;;;;;1.35;59.05;102588.69;5004778;28;123200;-67
2021/12/22 00:39:44;;;;;;;32.30;11.90;;;;;;;1.33;58.80;102584.31;5009809;28;122736;-65
2021/12/22 00:42:12;;;;;;;35.20;11.88;;;;;;;1.32;58.90;102593.88;5015700;28;115125;-65
2021/12/22 00:44:41;;;;;;;34.88;12.43;;;;;;;1.30;58.93;102585.13;5019161;28;114976;-65
2021/12/22 00:47:09;;;;;;;33.20;12.93;;;;;;;1.28;58.77;102579.00;5004941;28;123070;-65
2021/12/22 00:49:37;;;;;;;29.70;12.30;;;;;;;1.27;58.90;102579.84;5013343;28;123774;-65
2021/12/22 00:52:04;;;;;;;31.38;12.23;;;;;;;1.26;58.91;102574.56;5013802;28;114857;-65
2021/12/22 00:54:32;;;;;;;34.38;12.55;;;;;;;1.24;58.85;102574.53;5017885;28;114108;-65
2021/12/22 00:57:04;;;;;;;31.95;12.52;;;;;;;1.24;58.77;102574.53;5020767;28;124794;-65
2021/12/22 00:59:33;;;;;;;36.90;13.65;;;;;;;1.21;58.92;102577.09;5020003;28;124757;-65
2021/12/22 01:02:02;;;;;;;32.10;12.35;;;;;;;1.19;58.97;102573.56;5017453;28;114017;-65
2021/12/22 01:04:29;;;;;;;39.03;12.43;;;;;;;1.19;58.95;102577.91;5018558;28;114622;-65
2021/12/22 01:06:57;;;;;;;35.53;12.45;;;;;;;1.17;58.99;102583.09;5022411;28;124121;-64
2021/12/22 01:09:24;;;;;;;37.70;12.93;;;;;;;1.16;59.00;102581.34;5011756;28;124297;-65
2021/12/22 01:11:52;;;;;;;34.90;12.95;;;;;;;1.15;58.96;102584.81;5003278;28;113388;-64
2021/12/22 01:14:21;;;;;;;33.33;12.27;;;;;;;1.14;58.78;102583.03;5013897;28;114552;-65
2021/12/22 01:16:51;;;;;;;37.83;12.95;;;;;;;1.12;58.99;102584.72;5011635;28;123787;-64
2021/12/22 01:19:37;;;;;;;34.60;12.45;;;;;;;1.10;58.70;102582.06;5013133;28;122877;-64
2021/12/22 01:22:22;;;;;;;36.05;13.60;;;;;;;1.08;58.97;102582.91;5023653;28;114973;-66
2021/12/22 01:24:59;;;;;;;36.53;13.17;;;;;;;1.07;58.85;102581.13;5022883;28;114334;-65
2021/12/22 01:27:33;;;;;;;34.58;12.18;;;;;;;1.06;58.95;102574.16;4995724;28;123707;-65
2021/12/22 01:30:07;;;;;;;36.60;13.70;;;;;;;1.05;58.78;102577.59;5017411;28;123556;-65
2021/12/22 01:32:35;;;;;;;33.47;12.95;;;;;;;1.03;58.88;102584.50;5018294;28;115130;-65
2021/12/22 01:35:05;;;;;;;39.53;13.73;;;;;;;1.03;59.13;102584.50;5009155;28;114986;-65
2021/12/22 01:37:32;;;;;;;33.72;12.60;;;;;;;1.02;58.99;102581.03;5018788;28;124243;-64
2021/12/22 01:40:01;;;;;;;37.17;13.73;;;;;;;1.02;59.00;102582.75;5007152;28;124742;-64
2021/12/22 01:42:28;;;;;;;34.35;13.48;;;;;;;1.02;59.04;102585.34;5000529;28;114371;-65
2021/12/22 01:50:40;;;;;;;33.92;11.80;;;;;;;0.97;58.84;102585.25;5018392;28;123708;-65
2021/12/22 01:53:19;;;;;;;37.60;12.68;;;;;;;0.94;58.97;102580.88;5019020;28;114473;-64
2021/12/22 01:56:00;;;;;;;35.17;12.93;;;;;;;0.93;58.82;102579.09;5012907;28;114388;-64
2021/12/22 01:58:36;;;;;;;30.42;12.07;;;;;;;0.90;58.73;102576.41;5012961;28;124348;-64
2021/12/22 02:01:05;;;;;;;33.30;12.52;;;;;;;0.88;59.00;102580.69;5020131;28;123868;-64
2021/12/22 02:03:33;;;;;;;34.15;12.98;;;;;;;0.86;58.95;102577.19;5016855;28;114118;-64
2021/12/22 02:06:02;;;;;;;35.55;12.80;;;;;;;0.84;58.88;102578.88;4998388;28;113534;-64
2021/12/22 02:08:29;;;;;;;32.95;12.15;;;;;;;0.84;58.88;102571.03;5012751;28;124579;-65
2021/12/22 02:10:56;;;;;;;31.02;12.30;;;;;;;0.83;58.94;102571.91;5023150;28;123978;-64
2021/12/22 02:13:29;;;;;;;38.53;12.40;;;;;;;0.82;58.76;102570.13;5015856;28;114611;-65
2021/12/22 02:16:05;;;;;;;35.60;12.27;;;;;;;0.81;58.97;102576.22;5011047;28;113832;-65
2021/12/22 02:18:42;;;;;;;34.05;12.70;;;;;;;0.81;58.96;102572.69;5000998;28;123227;-65
2021/12/22 02:21:09;;;;;;;36.20;11.85;;;;;;;0.79;58.95;102575.28;5012655;28;123843;-65
2021/12/22 02:23:37;;;;;;;38.70;13.10;;;;;;;0.77;59.00;102576.97;5012630;28;115166;-65
2021/12/22 02:26:14;;;;;;;40.55;12.63;;;;;;;0.76;58.87;102585.66;5018959;28;115383;-64
2021/12/22 02:28:46;;;;;;;31.17;11.70;;;;;;;0.75;59.09;102583.88;5011900;28;124286;-64
2021/12/22 02:31:18;;;;;;;40.65;12.73;;;;;;;0.74;58.73;102582.13;4999904;28;122714;-64
2021/12/22 02:33:46;;;;;;;35.83;12.18;;;;;;;0.72;58.76;102582.09;5017399;28;114165;-65
2021/12/22 02:36:23;;;;;;;34.28;12.05;;;;;;;0.72;58.85;102578.59;5010160;28;113844;-65
2021/12/22 02:38:59;;;;;;;38.05;12.57;;;;;;;0.69;58.86;102574.19;4997935;28;124106;-63
2021/12/22 02:41:28;;;;;;;;;;;;;;;0.66;59.12;102584.56;5011342;28;123850;-64
2021/12/22 02:43:57;;;;;;;30.25;11.43;;;;;;;0.66;58.78;102588.88;5018769;28;114079;-64
2021/12/22 02:46:31;;;;;;;35.40;11.45;;;;;;;0.64;58.92;102580.13;5017707;28;113883;-65
2021/12/22 02:49:02;;;;;;;30.30;11.50;;;;;;;0.63;59.06;102583.59;5015246;28;123963;-64
2021/12/22 02:51:30;;;;;;;38.22;12.40;;;;;;;0.62;58.79;102571.38;5017953;28;123905;-64
2021/12/22 02:54:14;;;;;;;35.65;11.82;;;;;;;0.60;58.80;102567.88;5010481;28;114833;-64
2021/12/22 03:04:42;;;;;;;37.20;11.73;;;;;;;0.57;59.27;102574.78;5019320;28;114624;-65
2021/12/22 03:07:15;;;;;;;34.33;11.43;;;;;;;0.57;59.10;102569.56;4998075;28;114686;-64
2021/12/22 03:09:44;;;;;;;33.22;12.38;;;;;;;0.60;59.26;102567.88;5012450;28;123866;-66
2021/12/22 03:12:14;;;;;;;39.00;12.63;;;;;;;0.60;59.30;102567.88;5019809;28;124361;-66
2021/12/22 03:14:42;;;;;;;35.63;11.73;;;;;;;0.61;58.95;102574.84;4996319;28;114230;-66
2021/12/22 03:17:09;;;;;;;39.30;11.93;;;;;;;0.61;59.17;102580.06;5014837;28;115729;-66
2021/12/22 03:19:36;;;;;;;41.55;12.25;;;;;;;0.61;58.96;102585.28;5012700;28;124832;-66
2021/12/22 03:22:09;;;;;;;38.20;11.98;;;;;;;0.60;59.31;102597.41;5011903;28;123624;-66
2021/12/22 03:24:38;;;;;;;34.78;12.77;;;;;;;0.60;59.06;102599.16;5013745;28;114155;-66
2021/12/22 03:27:07;;;;;;;29.73;11.45;;;;;;;0.58;58.80;102597.41;5016523;28;113965;-66
2021/12/22 03:29:37;;;;;;;40.65;11.75;;;;;;;0.58;59.01;102597.41;5014403;28;123719;-66
2021/12/22 03:32:06;;;;;;;37.15;12.73;;;;;;;0.57;59.19;102595.63;5015537;28;123933;-66
2021/12/22 03:34:34;;;;;;;34.92;11.90;;;;;;;0.58;59.22;102596.50;5014450;28;114918;-66
2021/12/22 03:37:02;;;;;;;34.58;12.25;;;;;;;0.57;58.84;102590.41;5011301;28;112914;-65
2021/12/22 03:39:30;;;;;;;38.55;11.88;;;;;;;0.56;58.85;102593.84;5015459;28;123839;-66
2021/12/22 03:41:58;;;;;;;36.42;11.82;;;;;;;0.54;58.79;102590.31;5013971;28;124628;-65
2021/12/22 03:44:25;;;;;;;41.70;12.75;;;;;;;0.52;58.68;102584.19;5013408;28;114645;-66
2021/12/22 03:46:53;;;;;;;38.33;11.85;;;;;;;0.51;58.83;102585.06;5015821;28;113960;-66
2021/12/22 03:49:20;;;;;;;36.45;12.05;;;;;;;0.51;58.99;102584.16;5003455;28;124150;-65
2021/12/22 03:51:47;;;;;;;36.15;11.95;;;;;;;0.48;58.79;102574.53;5002452;28;123485;-65
2021/12/22 03:54:15;;;;;;;31.08;11.50;;;;;;;0.48;58.95;102584.97;5001072;28;113663;-65
2021/12/22 03:56:43;;;;;;;35.80;11.60;;;;;;;0.47;59.06;102572.81;5021141;28;114057;-65
2021/12/22 03:59:10;;;;;;;33.33;12.32;;;;;;;0.47;58.88;102583.22;5015722;28;124721;-65
2021/12/22 04:01:37;;;;;;;34.55;11.43;;;;;;;0.47;58.99;102578.00;4999194;28;123822;-66
2021/12/22 04:04:12;;;;;;;31.13;11.13;;;;;;;0.44;58.87;102577.94;5020884;28;115119;-66
2021/12/22 04:06:41;;;;;;;29.77;11.30;;;;;;;0.43;59.15;102576.16;5001788;28;115783;-66
2021/12/22 04:09:08;;;;;;;33.22;11.57;;;;;;;0.41;58.92;102577.84;5019507;28;123469;-65
2021/12/22 04:11:35;;;;;;;33.83;10.85;;;;;;;0.39;58.96;102574.31;5011541;28;125804;-65
2021/12/22 04:14:03;;;;;;;33.22;11.75;;;;;;;0.38;59.06;102572.56;5010535;28;114221;-65
2021/12/22 04:16:31;;;;;;;36.58;12.32;;;;;;;0.36;58.78;102584.69;5023698;28;113982;-65
2021/12/22 04:18:58;;;;;;;35.30;11.63;;;;;;;0.35;58.79;102572.47;5016605;28;123951;-65
2021/12/22 04:21:26;;;;;;;33.85;12.23;;;;;;;0.34;59.09;102581.13;5016063;28;124664;-65
2021/12/22 04:23:53;;;;;;;31.42;11.80;;;;;;;0.33;58.63;102579.38;4998073;28;113112;-65
2021/12/22 04:26:20;;;;;;;35.95;11.73;;;;;;;0.31;58.95;102575.84;4995418;28;114285;-65
2021/12/22 04:28:47;;;;;;;32.28;11.70;;;;;;;0.31;58.68;102573.25;5024813;28;124592;-65
2021/12/22 04:31:15;;;;;;;32.10;10.65;;;;;;;0.29;59.14;102567.13;5017279;28;123978;-65
2021/12/22 04:33:43;;;;;;;32.97;11.57;;;;;;;0.28;58.96;102565.34;5015428;28;115082;-65
2021/12/22 04:36:10;;;;;;;32.92;10.75;;;;;;;0.28;58.88;102560.13;5014975;28;114913;-65
2021/12/22 04:38:37;;;;;;;29.08;10.95;;;;;;;0.28;59.00;102560.13;5017821;28;124027;-65
2021/12/22 04:41:05;;;;;;;35.90;10.60;;;;;;;0.28;58.90;102554.91;5012044;28;124387;-65
2021/12/22 04:43:32;;;;;;;29.95;11.38;;;;;;;0.27;58.78;102555.78;5021077;28;114444;-65
2021/12/22 04:46:00;;;;;;;37.50;12.02;;;;;;;0.26;59.15;102546.19;5012396;28;114525;-65
2021/12/22 04:48:27;;;;;;;34.65;11.82;;;;;;;0.25;58.78;102549.66;5015582;28;123868;-65
2021/12/22 04:50:54;;;;;;;30.77;10.40;;;;;;;0.25;59.21;102553.13;5020448;28;123912;-67
2021/12/22 04:53:25;;;;;;;34.50;11.43;;;;;;;0.24;59.24;102555.69;5023583;28;115507;-65
2021/12/22 04:55:57;;;;;;;32.13;11.07;;;;;;;0.24;59.07;102553.09;5023694;28;116022;-65
2021/12/22 04:58:24;;;;;;;38.03;11.48;;;;;;;0.22;59.22;102553.03;5013783;28;124849;-62
2021/12/22 05:00:51;;;;;;;28.05;10.90;;;;;;;0.22;59.22;102552.16;5001895;28;123974;-62
2021/12/22 05:03:18;;;;;;;37.90;11.82;;;;;;;0.19;58.87;102546.03;5014019;28;114181;-62
2021/12/22 05:05:45;;;;;;;30.25;11.15;;;;;;;0.18;58.84;102533.84;5013292;28;114358;-62
2021/12/22 05:08:13;;;;;;;31.40;11.07;;;;;;;0.17;58.88;102539.91;5010833;28;123940;-62
2021/12/22 05:10:40;;;;;;;36.60;11.27;;;;;;;0.17;59.04;102542.53;5011202;28;124308;-62
2021/12/22 05:13:07;;;;;;;29.88;11.05;;;;;;;0.17;59.28;102534.69;5014656;28;115026;-61
2021/12/22 05:15:39;;;;;;;30.38;10.45;;;;;;;0.17;59.10;102537.31;5016251;28;114456;-62
2021/12/22 05:18:25;;;;;;;30.98;10.68;;;;;;;0.16;59.44;102530.31;5014379;28;124779;-62
2021/12/22 05:20:52;;;;;;;27.70;10.23;;;;;;;0.18;59.24;102538.19;5011231;28;123845;-61
2021/12/22 05:23:20;;;;;;;31.00;10.65;;;;;;;0.17;59.19;102534.69;5016410;28;115175;-61
2021/12/22 05:25:47;;;;;;;30.35;10.02;;;;;;;0.17;59.29;102532.09;5010233;28;114264;-61
2021/12/22 05:28:14;;;;;;;24.58;10.07;;;;;;;0.16;58.96;102535.53;5018808;28;124066;-61
2021/12/22 05:30:44;;;;;;;30.98;10.85;;;;;;;0.17;59.10;102542.53;5015951;28;124692;-61
2021/12/22 05:33:11;;;;;;;28.05;10.23;;;;;;;0.18;59.28;102540.78;5019507;28;114721;-61
2021/12/22 05:35:41;;;;;;;31.23;10.55;;;;;;;0.17;59.21;102532.09;5000070;28;113224;-61
2021/12/22 05:38:08;;;;;;;39.80;11.85;;;;;;;0.17;59.35;102532.09;5016207;28;123915;-61
2021/12/22 05:40:36;;;;;;;30.65;10.18;;;;;;;0.18;59.12;102528.63;5009939;28;123783;-62
2021/12/22 05:43:07;;;;;;;29.58;10.27;;;;;;;0.19;59.24;102525.19;5017940;28;115119;-62
2021/12/22 05:45:34;;;;;;;26.63;10.05;;;;;;;0.21;59.15;102526.94;5016547;28;115339;-61
2021/12/22 05:48:02;;;;;;;29.20;10.15;;;;;;;0.22;59.55;102528.72;5016596;28;124591;-62
2021/12/22 05:50:29;;;;;;;28.85;10.38;;;;;;;0.23;59.33;102525.25;5013824;28;124403;-61
2021/12/22 05:52:56;;;;;;;32.08;10.75;;;;;;;0.23;59.42;102520.03;5010336;28;114630;-61
2021/12/22 05:55:24;;;;;;;31.55;10.55;;;;;;;0.25;59.32;102513.19;5008426;28;113808;-61
2021/12/22 05:57:51;;;;;;;29.63;10.05;;;;;;;0.24;59.20;102512.28;5017640;28;123909;-61
2021/12/22 06:00:18;;;;;;;28.88;9.57;;;;;;;0.24;59.26;102511.41;5010962;28;124092;-61
2021/12/22 06:02:45;;;;;;;27.52;9.75;;;;;;;0.26;59.22;102512.31;5001450;28;114257;-61
2021/12/22 06:05:13;;;;;;;25.17;9.48;;;;;;;0.26;59.62;102510.56;4995325;28;113199;-61
2021/12/22 06:07:40;;;;;;;29.30;10.50;;;;;;;0.28;59.58;102513.22;5018328;28;124779;-61
2021/12/22 06:10:08;;;;;;;25.48;9.98;;;;;;;0.29;59.45;102515.00;5013397;28;123936;-62
2021/12/22 06:12:35;;;;;;;28.35;9.85;;;;;;;0.30;59.55;102516.75;5022311;28;114292;-62
2021/12/22 06:15:03;;;;;;;23.52;9.15;;;;;;;0.31;59.57;102521.13;5008212;28;114718;-61
2021/12/22 06:17:30;;;;;;;28.58;10.15;;;;;;;0.32;59.57;102515.06;5015577;28;124412;-61
2021/12/22 06:19:57;;;;;;;22.92;9.65;;;;;;;0.33;59.52;102515.09;4993154;28;126000;-64
2021/12/22 06:22:26;;;;;;;23.60;9.07;;;;;;;0.32;59.23;102515.97;5012705;28;114575;-65
2021/12/22 06:24:53;;;;;;;24.55;9.20;;;;;;;0.33;59.01;102516.84;5011688;28;114090;-65
2021/12/22 06:27:21;;;;;;;26.25;9.27;;;;;;;0.31;59.30;102514.19;5019483;28;124336;-65
2021/12/22 06:29:48;;;;;;;26.02;9.02;;;;;;;0.30;59.40;102516.75;5013122;28;123476;-65
2021/12/22 06:32:16;;;;;;;24.35;9.40;;;;;;;0.31;59.26;102513.31;5012174;28;115259;-61
2021/12/22 06:34:44;;;;;;;24.35;8.45;;;;;;;0.30;59.25;102517.66;5012925;28;114874;-61
2021/12/22 06:37:13;;;;;;;23.67;9.02;;;;;;;0.31;59.40;102518.53;5001171;28;122964;-61
2021/12/22 06:39:40;;;;;;;25.73;8.95;;;;;;;0.30;59.00;102517.66;5009716;28;124102;-61
2021/12/22 06:42:08;;;;;;;22.85;8.82;;;;;;;0.29;59.17;102520.22;5021243;28;114992;-61
2021/12/22 06:44:35;;;;;;;26.90;9.38;;;;;;;0.30;59.20;102516.75;5008498;28;114124;-61
2021/12/22 06:47:03;;;;;;;20.45;9.10;;;;;;;0.28;59.02;102518.44;5009150;28;123888;-61
2021/12/22 06:49:30;;;;;;;20.67;7.88;;;;;;;0.27;59.07;102521.91;4993283;28;123049;-61
2021/12/22 06:51:57;;;;;;;23.25;8.52;;;;;;;0.25;58.91;102519.25;4990352;28;114660;-61
2021/12/22 06:54:24;;;;;;;23.42;8.48;;;;;;;0.24;59.17;102527.03;5008073;28;113704;-61
2021/12/22 06:56:51;;;;;;;22.67;8.23;;;;;;;0.21;58.97;102526.94;5007834;28;123974;-61
2021/12/22 06:59:19;;;;;;;20.00;8.60;;;;;;;0.21;58.81;102532.16;5008627;28;123788;-61
2021/12/22 07:01:46;;;;;;;22.80;7.88;;;;;;;0.18;59.15;102539.06;4991725;28;113242;-64
2021/12/22 07:04:14;;;;;;;22.08;8.25;;;;;;;0.17;58.83;102542.53;5010623;28;113774;-65
2021/12/22 07:06:41;;;;;;;23.25;8.18;;;;;;;0.15;59.23;102536.41;5007464;28;124764;-65
2021/12/22 07:09:11;;;;;;;22.83;8.43;;;;;;;0.13;59.17;102530.25;5012936;28;124239;-65
2021/12/22 07:11:39;;;;;;;22.42;7.95;;;;;;;0.13;59.14;102534.56;5012522;28;114246;-65
2021/12/22 07:14:07;;;;;;;27.00;8.27;;;;;;;0.11;59.01;102531.03;5012678;28;113939;-65
2021/12/22 07:16:36;;;;;;;17.60;7.95;;;;;;;0.10;59.08;102530.19;4996211;28;123415;-65
2021/12/22 07:19:03;;;;;;;21.77;7.47;;;;;;;0.08;59.05;102531.88;5011688;28;123897;-66
2021/12/22 07:21:31;;;;;;;21.13;8.20;;;;;;;0.06;58.94;102543.97;5013163;28;115745;-65
2021/12/22 07:23:58;;;;;;;19.90;7.55;;;;;;;0.05;58.94;102542.19;4996962;28;113843;-65
2021/12/22 07:26:25;;;;;;;24.15;8.13;;;;;;;0.04;59.33;102539.53;5012126;28;124145;-65
2021/12/22 07:28:52;;;;;;;21.92;7.85;;;;;;;0.02;59.02;102531.72;5012019;28;124583;-65
2021/12/22 07:31:19;;;;;;;19.15;8.02;;;;;;;0.00;59.05;102528.19;5010493;28;114358;-65
2021/12/22 07:33:52;;;;;;;19.40;8.00;;;;;;;-0.03;59.17;102522.88;5009948;28;113812;-64
2021/12/22 07:36:19;;;;;;;22.85;8.27;;;;;;;-0.04;59.10;102526.31;5009926;28;124785;-64
2021/12/22 07:38:59;;;;;;;20.95;7.55;;;;;;;-0.06;58.75;102522.81;4995259;28;122946;-64
2021/12/22 07:41:27;;;;;;;22.88;7.80;;;;;;;-0.08;59.13;102517.53;5011660;28;114449;-64
2021/12/22 07:43:54;;;;;;;17.77;7.45;;;;;;;-0.10;59.05;102520.97;4991942;28;113872;-64
2021/12/22 07:46:22;;;;;;;21.98;7.55;;;;;;;-0.13;58.80;102521.78;4994842;28;123870;-64
2021/12/22 07:48:49;;;;;;;21.58;7.85;;;;;;;-0.14;58.85;102521.72;5013122;28;123887;-64
2021/12/22 07:51:16;;;;;;;17.35;7.10;;;;;;;-0.15;59.04;102527.75;5010611;28;114208;-64
2021/12/22 07:53:44;;;;;;;21.02;8.20;;;;;;;-0.16;59.27;102526.03;5014882;28;113840;-65
2021/12/22 07:56:11;;;;;;;18.55;6.90;;;;;;;-0.17;59.04;102521.63;5016390;28;123900;-65
2021/12/22 07:58:39;;;;;;;17.25;7.57;;;;;;;-0.17;58.80;102519.03;5016431;28;124596;-64
2021/12/22 08:01:07;;;;;;;20.33;7.75;;;;;;;-0.18;59.22;102517.28;5008209;28;114908;-64
2021/12/22 08:03:34;;;;;;;15.57;7.10;;;;;;;-0.17;59.38;102526.84;5016681;28;114104;-64
2021/12/22 08:06:33;;;;;;;16.30;7.32;;;;;;;-0.18;59.43;102507.75;5017199;28;123609;-64
2021/12/22 08:09:01;;;;;;;19.45;7.60;;;;;;;-0.17;59.32;102511.22;5015619;28;124347;-66
2021/12/22 08:11:28;;;;;;;22.42;7.43;;;;;;;-0.16;59.24;102510.41;5020419;28;114323;-65
2021/12/22 08:13:55;;;;;;;23.33;8.45;;;;;;;-0.14;59.27;102508.72;5015754;28;114911;-65
2021/12/22 08:16:22;;;;;;;16.25;7.10;;;;;;;-0.13;59.21;102505.25;5015548;28;124818;-65
2021/12/22 08:18:49;;;;;;;16.83;7.15;;;;;;;-0.09;59.28;102507.13;5017180;28;124649;-65
2021/12/22 08:21:17;;;;;;;17.95;7.35;;;;;;;-0.06;59.40;102512.38;5015356;28;114906;-65
2021/12/22 08:23:44;;;;;;;19.50;7.65;;;;;;;-0.03;59.62;102507.25;5008569;28;114004;-65
2021/12/22 08:26:11;;;;;;;20.60;7.57;;;;;;;0.01;59.36;102514.31;5000432;28;124064;-65
2021/12/22 08:28:38;;;;;;;20.98;7.32;;;;;;;0.05;59.68;102505.72;5010150;28;123999;-65
2021/12/22 08:31:05;;;;;;;17.85;6.88;;;;;;;0.09;59.48;102512.78;5014403;28;114562;-65
2021/12/22 08:33:38;;;;;;;17.48;7.57;;;;;;;0.13;59.81;102512.03;5015787;28;113905;-65
2021/12/22 08:38:52;;;;;;;21.42;6.78;;;;;;;0.24;60.03;102506.19;5011711;28;123903;-65
2021/12/22 08:41:30;;;;;;;22.73;7.47;;;;;;;0.29;59.49;102515.00;5012573;27;114136;-66
2021/12/22 08:44:01;;;;;;;17.05;7.32;;;;;;;0.34;59.61;102513.38;5006637;28;113692;-65
2021/12/22 08:46:32;;;;;;;17.50;7.03;;;;;;;0.38;59.87;102515.22;5019918;28;124649;-65
2021/12/22 08:49:00;;;;;;;15.95;7.05;;;;;;;0.43;59.62;102500.56;4994275;28;123079;-65
2021/12/22 08:51:28;;;;;;;16.98;7.00;;;;;;;0.48;59.88;102501.56;5003381;28;114306;-65
2021/12/22 08:53:56;;;;;;;15.40;6.78;;;;;;;0.53;59.70;102505.16;4998656;28;113129;-65
2021/12/22 08:56:23;;;;;;;15.38;7.60;;;;;;;0.58;59.65;102503.56;5011221;28;124622;-65
2021/12/22 08:58:50;;;;;;;17.90;7.38;;;;;;;0.64;59.55;102501.91;5012130;28;123626;-65
2021/12/22 09:01:17;;;;;;;18.70;6.60;;;;;;;0.69;59.75;102500.28;4991081;28;114956;-65
2021/12/22 09:03:45;;;;;;;17.80;6.75;;;;;;;0.74;59.71;102501.28;5013473;28;114788;-66
2021/12/22 09:06:13;;;;;;;17.08;7.45;;;;;;;0.80;59.81;102498.81;5011082;28;123930;-66
2021/12/22 09:08:41;;;;;;;13.73;6.53;;;;;;;0.85;59.74;102506.72;4992728;28;124175;-65
2021/12/22 09:11:12;;;;;;;19.90;6.85;;;;;;;0.92;60.06;102504.31;4991921;28;113423;-64
2021/12/22 09:13:40;;;;;;;14.65;6.90;;;;;;;0.97;60.11;102500.03;5012484;28;114429;-64
2021/12/22 09:16:11;;;;;;;14.93;6.88;;;;;;;1.03;60.06;102501.03;5011929;28;123968;-65
2021/12/22 09:18:39;;;;;;;18.45;7.22;;;;;;;1.09;60.04;102506.38;5010116;28;124354;-65
2021/12/22 09:21:08;;;;;;;16.88;6.72;;;;;;;1.15;59.93;102507.41;5008502;28;114864;-65
2021/12/22 09:23:35;;;;;;;14.82;6.40;;;;;;;1.23;60.00;102514.50;5010899;28;114649;-65
2021/12/22 09:26:04;;;;;;;17.65;7.55;;;;;;;1.28;59.90;102511.13;5008288;28;123768;-65
2021/12/22 09:28:31;;;;;;;17.40;6.88;;;;;;;1.34;59.97;102508.66;5008762;28;123711;-65
2021/12/22 09:30:59;;;;;;;16.75;7.15;;;;;;;1.41;59.87;102513.97;5006605;28;114323;-65
2021/12/22 09:33:26;;;;;;;17.15;7.28;;;;;;;1.46;59.77;102512.34;5008518;28;114528;-65
2021/12/22 09:35:54;;;;;;;17.73;6.85;;;;;;;1.52;59.93;102515.06;5008478;28;124564;-66
2021/12/22 09:38:22;;;;;;;17.38;7.20;;;;;;;1.58;60.03;102509.97;5011515;28;124294;-65
2021/12/22 09:40:49;;;;;;;14.95;7.72;;;;;;;1.65;60.22;102517.06;5027799;28;114503;-62
2021/12/22 09:43:16;;;;;;;15.75;6.82;;;;;;;1.71;60.01;102513.69;5030826;28;113923;-61
2021/12/22 09:45:49;;;;;;;14.90;7.50;;;;;;;1.77;59.93;102515.53;5026785;28;123913;-62
2021/12/22 09:53:31;;;;;;;16.27;7.20;;;;;;;1.97;60.15;102513.28;4992209;28;113293;-61
2021/12/22 09:55:58;;;;;;;14.43;6.57;;;;;;;2.04;60.14;102502.97;4999276;28;124527;-62
2021/12/22 09:58:27;;;;;;;14.45;6.68;;;;;;;2.10;60.06;102505.66;5007098;28;124545;-62
2021/12/22 10:00:55;;;;;;;13.07;6.45;;;;;;;2.16;60.20;102496.19;5006853;28;114575;-62
2021/12/22 10:03:24;;;;;;;12.43;6.75;;;;;;;2.23;59.96;102487.59;5009726;28;114325;-62
2021/12/22 10:05:52;;;;;;;17.42;7.18;;;;;;;2.28;60.10;102483.28;5009373;28;124439;-62
2021/12/22 10:08:25;;;;;;;17.02;7.65;;;;;;;2.33;60.21;102484.25;4991688;28;122752;-62
2021/12/22 10:11:04;;;;;;;16.85;7.70;;;;;;;2.39;59.99;102479.13;5007298;28;114179;-62
2021/12/22 10:13:32;;;;;;;16.35;7.55;;;;;;;2.45;59.99;102494.91;5010345;28;114621;-62
2021/12/22 10:16:10;;;;;;;18.55;6.75;;;;;;;2.51;60.18;102489.78;5008799;28;123285;-62
2021/12/22 10:18:37;;;;;;;14.43;7.10;;;;;;;2.60;60.10;102493.38;5007735;28;123899;-61
2021/12/22 10:21:18;;;;;;;15.07;7.55;;;;;;;2.67;60.07;102487.38;5007571;28;114845;-62
2021/12/22 10:23:49;;;;;;;15.40;7.30;;;;;;;2.73;60.34;102480.50;5009532;28;113976;-63
2021/12/22 10:26:22;;;;;;;15.00;6.60;;;;;;;2.81;60.09;102479.75;4992304;28;122915;-61
2021/12/22 10:28:53;;;;;;;13.25;7.25;;;;;;;2.87;60.19;102475.44;5010461;28;123975;-61
2021/12/22 10:31:31;;;;;;;14.05;7.10;;;;;;;2.95;60.20;102477.28;4991341;28;113574;-61
2021/12/22 10:34:03;;;;;;;14.25;7.25;;;;;;;3.02;60.10;102471.28;5008623;28;114189;-61
2021/12/22 10:36:46;;;;;;;12.00;6.40;;;;;;;3.07;60.31;102459.09;5009515;28;124186;-61
2021/12/22 10:39:22;;;;;;;17.52;7.45;;;;;;;3.16;60.02;102458.34;4992159;28;122971;-61
2021/12/22 10:41:50;;;;;;;13.65;7.28;;;;;;;3.21;59.93;102457.53;5007487;28;115820;-62
2021/12/22 10:44:19;;;;;;;15.35;7.50;;;;;;;3.27;59.74;102467.22;4992116;28;114670;-62
2021/12/22 10:46:47;;;;;;;15.00;7.32;;;;;;;3.33;60.13;102466.41;5012611;28;124803;-62
2021/12/22 10:49:21;;;;;;;14.50;6.70;;;;;;;3.37;59.85;102468.19;4993057;27;124048;-63
2021/12/22 10:52:01;;;;;;;14.00;6.75;;;;;;;3.39;59.52;102456.88;5014369;27;114053;-62
2021/12/22 10:54:36;;;;;;;15.10;6.90;;;;;;;3.42;59.78;102445.56;5014799;27;115143;-65
2021/12/22 10:57:10;;;;;;;14.05;7.07;;;;;;;3.46;59.67;102452.56;5021803;27;124546;-65
2021/12/22 10:59:42;;;;;;;16.20;7.20;;;;;;;3.51;59.78;102440.41;5021351;27;123223;-65
2021/12/22 11:02:11;;;;;;;16.02;7.63;;;;;;;3.56;59.89;102438.72;5012642;27;114620;-66
2021/12/22 11:04:43;;;;;;;13.25;7.15;;;;;;;3.62;59.83;102436.16;5011060;27;114896;-64
2021/12/22 11:07:23;;;;;;;15.38;7.05;;;;;;;3.67;59.87;102430.94;4992531;27;124041;-65
2021/12/22 11:09:51;;;;;;;14.98;8.02;;;;;;;3.75;59.75;102428.38;5012845;27;124913;-66
2021/12/22 11:12:36;;;;;;;18.50;7.32;;;;;;;3.80;59.56;102431.94;5013422;27;115241;-66
2021/12/22 11:15:05;;;;;;;16.20;7.50;;;;;;;3.83;59.56;102426.72;5012540;28;112661;-65
2021/12/22 11:17:38;;;;;;;16.90;7.63;;;;;;;3.87;59.73;102423.28;5019405;28;124350;-65
2021/12/22 11:20:06;;;;;;;15.60;7.60;;;;;;;3.89;59.63;102413.66;5013566;28;124154;-65
2021/12/22 11:22:47;;;;;;;17.17;8.30;;;;;;;3.93;59.70;102412.81;5007372;28;113267;-65
2021/12/22 11:25:14;;;;;;;15.15;7.43;;;;;;;3.99;59.78;102412.88;5005520;28;114110;-66
2021/12/22 11:27:41;;;;;;;15.15;8.00;;;;;;;4.04;59.81;102416.41;5012998;28;124273;-66
2021/12/22 11:30:10;;;;;;;17.48;8.25;;;;;;;4.09;59.56;102409.47;5023152;28;124293;-66
2021/12/22 11:32:39;;;;;;;18.30;8.45;;;;;;;4.16;59.50;102404.25;5017746;28;115314;-66
2021/12/22 11:35:09;;;;;;;23.70;8.55;;;;;;;4.23;59.57;102401.69;5016320;28;114904;-66
2021/12/22 11:37:36;;;;;;;13.98;7.93;;;;;;;4.29;59.83;102400.84;5019127;28;123912;-66
2021/12/22 11:40:09;;;;;;;15.48;7.63;;;;;;;4.33;59.45;102413.09;5015025;28;123963;-64
2021/12/22 11:42:40;;;;;;;13.00;7.50;;;;;;;4.34;59.66;102404.38;5013256;27;115008;-65